createdAt,value
2018-05-16T12:56:25.657Z,11.30
2018-05-16T12:56:48.951Z,11.18
2018-05-16T12:57:12.314Z,14.57
2018-05-16T12:57:36.385Z,16.05
2018-05-16T12:57:59.982Z,14.85
2018-05-16T12:58:23.374Z,11.05
2018-05-16T12:58:46.808Z,11.82
2018-05-16T12:59:10.153Z,12.00
2018-05-16T12:59:33.500Z,11.68
2018-05-16T12:59:57.085Z,10.93
2018-05-16T13:00:21.864Z,11.10
2018-05-16T13:00:46.174Z,9.68
2018-05-16T13:01:10.042Z,10.18
2018-05-16T13:01:34.746Z,10.82
2018-05-16T13:01:59.676Z,10.80
2018-05-16T13:02:23.968Z,12.80
2018-05-16T13:02:48.265Z,12.68
2018-05-16T13:03:11.646Z,11.45
2018-05-16T13:03:34.874Z,9.65
2018-05-16T13:03:58.519Z,15.95
2018-05-16T13:04:21.720Z,15.70
2018-05-16T13:04:45.081Z,10.77
2018-05-16T13:05:08.350Z,9.85
2018-05-16T13:05:31.847Z,9.40
2018-05-16T13:05:55.154Z,9.80
2018-05-16T13:06:18.596Z,11.45
2018-05-16T13:06:41.748Z,13.13
2018-05-16T13:07:05.139Z,13.35
2018-05-16T13:07:28.433Z,12.10
2018-05-16T13:07:53.458Z,9.68
2018-05-16T13:08:18.543Z,11.00
2018-05-16T13:08:43.145Z,14.00
2018-05-16T13:09:07.984Z,13.45
2018-05-16T13:09:31.518Z,13.15
2018-05-16T13:09:54.865Z,10.10
2018-05-16T13:10:18.212Z,10.70
2018-05-16T13:10:43.814Z,11.50
2018-05-16T13:11:09.044Z,12.82
2018-05-16T13:11:33.301Z,13.05
2018-05-16T13:11:56.926Z,14.48
2018-05-16T13:12:20.429Z,14.40
2018-05-16T13:12:43.765Z,13.75
2018-05-16T13:13:07.173Z,11.77
2018-05-16T13:13:30.520Z,12.15
2018-05-16T13:13:53.899Z,13.98
2018-05-16T13:14:17.421Z,12.80
2018-05-16T13:14:40.882Z,12.48
2018-05-16T13:15:04.189Z,13.27
2018-05-16T13:15:27.667Z,12.43
2018-05-16T13:15:51.015Z,10.70
2018-05-16T13:16:14.270Z,9.10
2018-05-16T13:16:37.476Z,10.20
2018-05-16T13:17:00.768Z,11.50
2018-05-16T13:17:27.306Z,11.80
2018-05-16T13:17:50.787Z,11.43
2018-05-16T13:18:14.899Z,13.57
2018-05-16T13:18:38.109Z,12.20
2018-05-16T13:19:02.299Z,9.75
2018-05-16T13:19:25.584Z,9.00
2018-05-16T13:19:49.195Z,10.70
2018-05-16T13:20:12.543Z,11.70
2018-05-16T13:20:35.890Z,11.02
2018-05-16T13:20:59.244Z,9.55
2018-05-16T13:21:22.513Z,9.30
2018-05-16T13:21:45.796Z,10.40
2018-05-16T13:22:09.202Z,10.07
2018-05-16T13:22:32.377Z,9.15
2018-05-16T13:22:55.773Z,9.82
2018-05-16T13:23:19.118Z,10.20
2018-05-16T13:23:42.463Z,9.02
2018-05-16T13:24:05.717Z,9.32
2018-05-16T13:24:29.147Z,11.20
2018-05-16T13:24:53.324Z,14.48
2018-05-16T13:25:16.673Z,13.43
2018-05-16T13:25:39.930Z,13.85
2018-05-16T13:26:03.369Z,12.68
2018-05-16T13:26:26.897Z,13.55
2018-05-16T13:26:50.992Z,12.20
2018-05-16T13:27:14.352Z,12.27
2018-05-16T13:27:37.885Z,12.00
2018-05-16T13:28:01.331Z,12.93
2018-05-16T13:28:24.680Z,12.35
2018-05-16T13:28:47.849Z,11.30
2018-05-16T13:29:11.235Z,12.25
2018-05-16T13:29:34.515Z,13.30
2018-05-16T13:29:57.862Z,12.20
2018-05-16T13:30:21.210Z,10.10
2018-05-16T13:30:44.691Z,10.20
2018-05-16T13:31:08.109Z,9.90
2018-05-16T13:31:31.574Z,9.65
2018-05-16T13:31:55.008Z,9.70
2018-05-16T13:32:18.229Z,9.00
2018-05-16T13:32:41.411Z,8.65
2018-05-16T13:33:04.765Z,10.23
2018-05-16T13:33:28.096Z,10.27
2018-05-16T13:33:51.540Z,13.35
2018-05-16T13:34:15.092Z,14.45
2018-05-16T13:34:38.351Z,14.23
2018-05-16T13:35:01.700Z,11.30
2018-05-16T13:35:25.338Z,9.70
2018-05-16T13:35:48.664Z,9.60
2018-05-16T13:36:12.850Z,9.68
2018-05-16T13:36:36.112Z,9.60
2018-05-16T13:36:59.455Z,9.77
2018-05-16T13:37:22.895Z,8.50
2018-05-16T13:37:46.072Z,8.90
2018-05-16T13:38:09.265Z,10.23
2018-05-16T13:38:32.618Z,10.63
2018-05-16T13:38:56.078Z,10.55
2018-05-16T13:39:19.551Z,10.73
2018-05-16T13:39:42.977Z,10.80
2018-05-16T13:40:06.529Z,9.88
2018-05-16T13:40:29.788Z,9.18
2018-05-16T13:40:53.223Z,9.50
2018-05-16T13:41:16.482Z,10.90
2018-05-16T13:41:39.824Z,10.70
2018-05-16T13:42:03.174Z,10.20
2018-05-16T13:42:26.568Z,8.60
2018-05-16T13:42:49.870Z,9.23
2018-05-16T13:43:13.222Z,10.40
2018-05-16T13:43:36.654Z,10.45
2018-05-16T13:44:00.210Z,10.85
2018-05-16T13:44:23.554Z,10.77
2018-05-16T13:44:46.790Z,9.85
2018-05-16T13:45:10.048Z,9.77
2018-05-16T13:45:33.391Z,10.50
2018-05-16T13:45:56.738Z,10.25
2018-05-16T13:46:20.170Z,13.10
2018-05-16T13:46:43.637Z,13.00
2018-05-16T13:47:06.903Z,10.10
2018-05-16T13:47:30.332Z,11.25
2018-05-16T13:47:53.678Z,27.67
2018-05-16T13:48:17.026Z,25.85
2018-05-16T13:48:40.376Z,26.35
2018-05-16T13:49:03.635Z,9.52
2018-05-16T13:49:26.841Z,8.65
2018-05-16T13:49:50.945Z,9.07
2018-05-16T13:50:14.291Z,9.40
2018-05-16T13:50:37.727Z,9.07
2018-05-16T13:51:00.983Z,8.63
2018-05-16T13:51:24.419Z,9.45
2018-05-16T13:51:47.648Z,9.60
2018-05-16T13:52:10.807Z,9.10
2018-05-16T13:52:34.255Z,9.30
2018-05-16T13:52:57.804Z,8.70
2018-05-16T13:53:21.290Z,8.68
2018-05-16T13:53:44.780Z,9.60
2018-05-16T13:54:08.168Z,9.73
2018-05-16T13:54:31.357Z,9.15
2018-05-16T13:54:54.756Z,7.95
2018-05-16T13:55:18.106Z,9.80
2018-05-16T13:55:41.444Z,10.25
2018-05-16T13:56:04.791Z,11.80
2018-05-16T13:56:28.044Z,10.35
2018-05-16T13:56:51.486Z,9.88
2018-05-16T13:57:14.831Z,11.00
2018-05-16T13:57:39.303Z,10.90
2018-05-16T13:58:02.857Z,9.55
2018-05-16T13:58:26.308Z,9.15
2018-05-16T13:58:49.651Z,8.77
2018-05-16T13:59:12.830Z,8.98
2018-05-16T13:59:36.143Z,8.50
2018-05-16T13:59:59.360Z,9.52
2018-05-16T14:00:22.838Z,10.40
2018-05-16T14:00:46.080Z,10.23
2018-05-16T14:01:09.444Z,9.85
2018-05-16T14:01:32.801Z,9.30
2018-05-16T14:01:56.147Z,8.52
2018-05-16T14:02:19.493Z,10.13
2018-05-16T14:02:42.922Z,9.90
2018-05-16T14:03:06.179Z,10.05
2018-05-16T14:03:29.484Z,7.75
2018-05-16T14:03:52.667Z,8.95
2018-05-16T14:04:16.019Z,9.70
2018-05-16T14:04:39.249Z,9.32
2018-05-16T14:05:02.596Z,9.30
2018-05-16T14:05:25.943Z,8.65
2018-05-16T14:05:49.290Z,9.30
2018-05-16T14:06:12.544Z,9.40
2018-05-16T14:06:35.844Z,10.15
2018-05-16T14:06:59.034Z,9.30
2018-05-16T14:07:22.221Z,8.17
2018-05-16T14:07:45.409Z,8.75
2018-05-16T14:08:08.670Z,9.02
2018-05-16T14:08:32.106Z,9.75
2018-05-16T14:08:55.372Z,10.90
2018-05-16T14:09:18.803Z,12.37
2018-05-16T14:09:42.059Z,10.80
2018-05-16T14:10:05.288Z,10.27
2018-05-16T14:10:28.638Z,9.38
2018-05-16T14:10:51.984Z,11.63
